Time;durP1;ratioP1;P1;durP2;ratioP2;P2;SDS_P1;SDS_P2;PMS_P1;PMS_P2;Temp;Humidity;BMP_temperature;BMP_pressure;BME280_temperature;BME280_humidity;BME280_pressure;Samples;Min_cycle;Max_cycle;Signal;HPM_P1;HPM_P2
2021/01/04 00:01:09;;;;;;;6.18;2.40;;;;;;;;;;5014770;28;20113;-47
2021/01/04 00:03:38;;;;;;;5.00;2.33;;;;;;;;;;4999133;28;20026;-46
2021/01/04 00:06:17;;;;;;;5.85;2.38;;;;;;;;;;4996962;28;20026;-46
2021/01/04 00:08:43;;;;;;;5.45;2.20;;;;;;;;;;4999303;28;20021;-48
2021/01/04 00:11:21;;;;;;;5.13;2.20;;;;;;;;;;4999677;28;20160;-47
2021/01/04 00:13:59;;;;;;;5.03;2.00;;;;;;;;;;5000590;28;20025;-47
2021/01/04 00:16:31;;;;;;;6.32;2.38;;;;;;;;;;4999851;28;20440;-46
2021/01/04 00:19:13;;;;;;;5.53;2.03;;;;;;;;;;4999303;28;20033;-49
2021/01/04 00:21:39;;;;;;;;;;;;;;;;;;4997913;28;20037;-47
2021/01/04 00:24:11;;;;;;;6.28;2.50;;;;;;;;;;4999465;28;19909;-46
2021/01/04 00:26:37;;;;;;;4.80;1.92;;;;;;;;;;4998507;28;20037;-46
2021/01/04 00:29:03;;;;;;;4.97;1.75;;;;;;;;;;4999293;28;20393;-47
2021/01/04 00:31:30;;;;;;;3.97;1.90;;;;;;;;;;4998365;28;20045;-47
2021/01/04 00:33:58;;;;;;;4.30;1.85;;;;;;;;;;4997488;28;20029;-46
2021/01/04 00:36:35;;;;;;;5.30;2.05;;;;;;;;;;4998814;28;20026;-46
2021/01/04 00:39:07;;;;;;;3.95;1.70;;;;;;;;;;4999504;28;20018;-45
2021/01/04 00:41:36;;;;;;;4.70;1.90;;;;;;;;;;4999681;28;20037;-46
2021/01/04 00:44:02;;;;;;;4.13;1.60;;;;;;;;;;5013406;28;20473;-50
2021/01/04 00:46:33;;;;;;;5.68;2.10;;;;;;;;;;4998640;28;20949;-47
2021/01/04 00:49:02;;;;;;;5.05;1.80;;;;;;;;;;5012968;28;20062;-46
2021/01/04 00:51:28;;;;;;;5.53;1.73;;;;;;;;;;4997961;28;20165;-47
2021/01/04 00:53:54;;;;;;;6.20;2.15;;;;;;;;;;4997659;28;20103;-46
2021/01/04 00:56:29;;;;;;;3.70;1.70;;;;;;;;;;5000126;28;20030;-46
2021/01/04 00:59:10;;;;;;;3.47;1.70;;;;;;;;;;4999093;28;20554;-45
2021/01/04 01:01:43;;;;;;;3.83;1.67;;;;;;;;;;4997926;28;20653;-46
2021/01/04 01:04:15;;;;;;;4.10;1.45;;;;;;;;;;5012323;28;20264;-47
2021/01/04 01:06:46;;;;;;;4.68;1.92;;;;;;;;;;4998209;28;20057;-47
2021/01/04 01:09:13;;;;;;;4.13;1.60;;;;;;;;;;5012347;28;20034;-47
2021/01/04 01:11:44;;;;;;;4.13;1.50;;;;;;;;;;4997736;28;20026;-47
2021/01/04 01:14:10;;;;;;;3.50;1.40;;;;;;;;;;5012246;28;20141;-46
2021/01/04 01:16:39;;;;;;;3.30;1.63;;;;;;;;;;4998311;28;20327;-46
2021/01/04 01:19:09;;;;;;;4.40;1.90;;;;;;;;;;4997001;28;20558;-46
2021/01/04 01:21:36;;;;;;;3.03;1.30;;;;;;;;;;4997872;28;20027;-46
2021/01/04 01:24:03;;;;;;;2.45;1.40;;;;;;;;;;4997253;28;20041;-46
2021/01/04 01:26:47;;;;;;;2.22;1.23;;;;;;;;;;4996874;28;20563;-46
2021/01/04 01:29:26;;;;;;;3.80;1.48;;;;;;;;;;4997795;28;20062;-47
2021/01/04 01:32:05;;;;;;;3.72;1.45;;;;;;;;;;4998536;28;20030;-46
2021/01/04 01:34:32;;;;;;;2.55;1.30;;;;;;;;;;4998684;28;20101;-46
2021/01/04 01:37:01;;;;;;;3.97;1.30;;;;;;;;;;5011952;28;20382;-46
2021/01/04 01:39:27;;;;;;;2.85;1.38;;;;;;;;;;4997218;28;20022;-46
2021/01/04 01:41:56;;;;;;;3.15;1.50;;;;;;;;;;4997482;28;20065;-46
2021/01/04 01:44:22;;;;;;;3.70;1.50;;;;;;;;;;4999046;28;20088;-46
2021/01/04 01:46:48;;;;;;;4.30;1.60;;;;;;;;;;4997582;28;20480;-46
2021/01/04 01:49:14;;;;;;;3.38;1.70;;;;;;;;;;4996600;28;20026;-46
2021/01/04 01:52:00;;;;;;;3.15;1.25;;;;;;;;;;4997171;28;20034;-47
2021/01/04 01:54:29;;;;;;;3.33;1.27;;;;;;;;;;4997209;28;20030;-48
2021/01/04 01:57:05;;;;;;;2.08;1.33;;;;;;;;;;4996673;28;20030;-46
2021/01/04 01:59:52;;;;;;;2.10;0.85;;;;;;;;;;4981017;28;20117;-46
2021/01/04 02:02:20;;;;;;;2.88;1.40;;;;;;;;;;4971736;28;20069;-46
2021/01/04 02:04:50;;;;;;;2.92;1.20;;;;;;;;;;4996077;28;20036;-47
2021/01/04 02:07:19;;;;;;;2.78;1.15;;;;;;;;;;4997585;28;20048;-46
2021/01/04 02:09:49;;;;;;;3.20;1.10;;;;;;;;;;4998427;28;20038;-47
2021/01/04 02:12:34;;;;;;;2.35;1.20;;;;;;;;;;5003846;28;20392;-47
2021/01/04 02:15:05;;;;;;;2.33;1.00;;;;;;;;;;4997574;28;20027;-47
2021/01/04 02:17:50;;;;;;;2.20;1.08;;;;;;;;;;4996505;28;20487;-46
2021/01/04 02:20:25;;;;;;;2.30;1.10;;;;;;;;;;5011253;28;20038;-48
2021/01/04 02:23:29;;;;;;;2.42;1.27;;;;;;;;;;4995728;28;20035;-47
2021/01/04 02:25:55;;;;;;;4.05;1.20;;;;;;;;;;4974190;28;20034;-46
2021/01/04 02:28:24;;;;;;;2.28;1.10;;;;;;;;;;4971221;28;20034;-46
2021/01/04 02:30:50;;;;;;;1.90;0.95;;;;;;;;;;4984985;28;20053;-46
2021/01/04 02:33:16;;;;;;;1.58;0.90;;;;;;;;;;4996422;28;20558;-47
2021/01/04 02:35:42;;;;;;;1.88;1.00;;;;;;;;;;4990803;28;20045;-47
2021/01/04 02:38:08;;;;;;;1.70;1.10;;;;;;;;;;5012438;28;20025;-47
2021/01/04 02:40:34;;;;;;;3.00;1.10;;;;;;;;;;4996579;28;20080;-46
2021/01/04 02:43:00;;;;;;;2.33;1.08;;;;;;;;;;4998883;28;20102;-46
2021/01/04 02:45:27;;;;;;;2.17;1.25;;;;;;;;;;4996502;28;20464;-48
2021/01/04 02:48:07;;;;;;;1.58;0.93;;;;;;;;;;4995763;28;20378;-46
2021/01/04 02:50:36;;;;;;;1.88;1.00;;;;;;;;;;5004211;28;20088;-46
2021/01/04 02:53:08;;;;;;;1.92;1.00;;;;;;;;;;4995896;28;20041;-46
2021/01/04 02:55:53;;;;;;;1.48;0.88;;;;;;;;;;4999104;28;20098;-46
2021/01/04 02:58:18;;;;;;;3.67;1.08;;;;;;;;;;5011542;28;20443;-46
2021/01/04 03:00:45;;;;;;;1.65;0.82;;;;;;;;;;4996268;28;20117;-47
2021/01/04 03:03:11;;;;;;;2.00;0.98;;;;;;;;;;4988866;28;20034;-46
2021/01/04 03:05:37;;;;;;;1.88;1.10;;;;;;;;;;4996318;28;20485;-46
2021/01/04 03:08:03;;;;;;;1.60;0.90;;;;;;;;;;5010540;28;20030;-47
2021/01/04 03:10:36;;;;;;;2.00;0.88;;;;;;;;;;4996721;28;20046;-49
2021/01/04 03:13:09;;;;;;;0.93;0.63;;;;;;;;;;4995310;28;20038;-51
2021/01/04 03:15:41;;;;;;;3.30;1.10;;;;;;;;;;4998395;28;20023;-51
2021/01/04 03:18:14;;;;;;;1.65;0.63;;;;;;;;;;4998256;28;20389;-48
2021/01/04 03:20:40;;;;;;;2.10;1.00;;;;;;;;;;5001222;28;20108;-47
2021/01/04 03:23:05;;;;;;;3.22;0.95;;;;;;;;;;5015374;28;20674;-46
2021/01/04 03:25:37;;;;;;;1.65;0.90;;;;;;;;;;4998542;28;20030;-46
2021/01/04 03:28:06;;;;;;;2.80;1.10;;;;;;;;;;4999056;28;20105;-48
2021/01/04 03:30:32;;;;;;;1.30;0.90;;;;;;;;;;4999912;28;20263;-48
2021/01/04 03:32:58;;;;;;;1.15;0.80;;;;;;;;;;4998520;28;20031;-47
2021/01/04 03:35:24;;;;;;;0.90;0.70;;;;;;;;;;4998933;28;20093;-47
2021/01/04 03:37:50;;;;;;;3.97;1.73;;;;;;;;;;4998433;28;20034;-48
2021/01/04 03:40:16;;;;;;;1.67;0.80;;;;;;;;;;4998666;28;20503;-48
2021/01/04 03:42:42;;;;;;;1.77;1.00;;;;;;;;;;5000951;28;20042;-48
2021/01/04 03:45:08;;;;;;;1.90;0.70;;;;;;;;;;4998673;28;20034;-49
2021/01/04 03:47:34;;;;;;;1.75;0.73;;;;;;;;;;5002513;28;20030;-47
2021/01/04 03:50:03;;;;;;;2.67;0.98;;;;;;;;;;4998655;28;20503;-46
2021/01/04 03:52:29;;;;;;;1.10;0.60;;;;;;;;;;4999090;28;20403;-47
2021/01/04 03:54:55;;;;;;;1.05;0.60;;;;;;;;;;4998000;28;20037;-47
2021/01/04 03:57:21;;;;;;;1.60;0.70;;;;;;;;;;4998686;28;20444;-47
2021/01/04 03:59:47;;;;;;;1.75;0.70;;;;;;;;;;4998508;28;20037;-47
2021/01/04 04:02:13;;;;;;;1.25;0.80;;;;;;;;;;4998322;28;20057;-47
2021/01/04 04:04:40;;;;;;;1.70;0.80;;;;;;;;;;5000185;28;20041;-47
2021/01/04 04:07:06;;;;;;;1.27;0.77;;;;;;;;;;5014705;28;20424;-47
2021/01/04 04:09:32;;;;;;;1.63;0.70;;;;;;;;;;4998883;28;20030;-47
2021/01/04 04:11:58;;;;;;;1.33;0.70;;;;;;;;;;4997743;28;20358;-47
2021/01/04 04:14:24;;;;;;;1.50;0.60;;;;;;;;;;5002130;28;20030;-47
2021/01/04 04:16:50;;;;;;;1.83;0.68;;;;;;;;;;4997766;28;20025;-47
2021/01/04 04:19:16;;;;;;;1.60;0.77;;;;;;;;;;4998109;28;20029;-47
2021/01/04 04:21:42;;;;;;;1.73;0.75;;;;;;;;;;4998859;28;20036;-47
2021/01/04 04:24:08;;;;;;;1.00;0.65;;;;;;;;;;4999334;28;20026;-47
2021/01/04 04:26:34;;;;;;;1.85;0.75;;;;;;;;;;5000825;28;20026;-47
2021/01/04 04:29:00;;;;;;;0.63;0.50;;;;;;;;;;4997453;28;20104;-47
2021/01/04 04:31:26;;;;;;;1.52;0.70;;;;;;;;;;4998313;28;20109;-48
2021/01/04 04:33:52;;;;;;;1.40;0.70;;;;;;;;;;5000202;28;20540;-48
2021/01/04 04:36:20;;;;;;;1.40;0.70;;;;;;;;;;4999130;28;20038;-48
2021/01/04 04:38:46;;;;;;;0.88;0.70;;;;;;;;;;4998462;28;20372;-47
2021/01/04 04:41:14;;;;;;;2.63;0.70;;;;;;;;;;4999122;28;20076;-47
2021/01/04 04:43:42;;;;;;;1.35;0.60;;;;;;;;;;4999735;28;20018;-47
2021/01/04 04:46:08;;;;;;;1.48;0.80;;;;;;;;;;5000124;28;20026;-47
2021/01/04 04:48:36;;;;;;;0.70;0.47;;;;;;;;;;5002248;28;20027;-47
2021/01/04 04:51:20;;;;;;;1.08;0.60;;;;;;;;;;4999471;28;20481;-47
2021/01/04 04:53:56;;;;;;;2.13;0.70;;;;;;;;;;5000861;28;20034;-47
2021/01/04 04:56:28;;;;;;;1.10;0.50;;;;;;;;;;4986687;28;20101;-46
2021/01/04 04:58:54;;;;;;;1.52;0.70;;;;;;;;;;4998283;28;20062;-47
2021/01/04 05:01:38;;;;;;;0.70;0.50;;;;;;;;;;4998338;28;20062;-47
2021/01/04 05:04:10;;;;;;;1.05;0.70;;;;;;;;;;4999751;28;20033;-47
2021/01/04 05:06:36;;;;;;;;;;;;;;;;;;4997943;28;20096;-47
2021/01/04 05:09:02;;;;;;;1.63;0.50;;;;;;;;;;5006501;28;20327;-46
2021/01/04 05:11:33;;;;;;;2.78;0.60;;;;;;;;;;4999722;28;20115;-47
2021/01/04 05:13:59;;;;;;;2.33;0.70;;;;;;;;;;5013896;28;20105;-47
2021/01/04 05:16:25;;;;;;;1.15;0.50;;;;;;;;;;5007479;28;20172;-47
2021/01/04 05:19:04;;;;;;;0.57;0.55;;;;;;;;;;4999667;28;20037;-47
2021/01/04 05:21:39;;;;;;;0.77;0.43;;;;;;;;;;5000407;28;20022;-47
2021/01/04 05:24:08;;;;;;;1.45;0.65;;;;;;;;;;4997277;28;20046;-47
2021/01/04 05:26:34;;;;;;;1.15;0.60;;;;;;;;;;4997358;28;20113;-49
2021/01/04 05:29:13;;;;;;;2.50;0.93;;;;;;;;;;4996473;28;20085;-47
2021/01/04 05:31:52;;;;;;;1.77;0.70;;;;;;;;;;4999618;28;20459;-47
2021/01/04 05:34:25;;;;;;;1.30;0.60;;;;;;;;;;5011670;28;20496;-50
2021/01/04 05:37:08;;;;;;;1.45;0.68;;;;;;;;;;4995859;28;20038;-51
2021/01/04 05:39:49;;;;;;;1.52;0.60;;;;;;;;;;5013639;28;20018;-48
2021/01/04 05:42:18;;;;;;;1.83;0.60;;;;;;;;;;5003833;28;20046;-46
2021/01/04 05:44:50;;;;;;;1.63;0.50;;;;;;;;;;4998553;28;20034;-47
2021/01/04 05:47:21;;;;;;;1.90;0.60;;;;;;;;;;4997582;28;20137;-47
2021/01/04 05:49:57;;;;;;;1.63;0.95;;;;;;;;;;4998668;28;20503;-47
2021/01/04 05:52:24;;;;;;;1.17;0.90;;;;;;;;;;4996294;28;20061;-47
2021/01/04 05:54:50;;;;;;;0.73;0.50;;;;;;;;;;4995981;28;20065;-47
2021/01/04 05:57:16;;;;;;;1.63;0.70;;;;;;;;;;4996244;28;20073;-47
2021/01/04 05:59:58;;;;;;;1.35;0.63;;;;;;;;;;4998235;28;20026;-47
2021/01/04 06:02:27;;;;;;;1.80;0.80;;;;;;;;;;4998939;28;20030;-47
2021/01/04 06:04:53;;;;;;;0.55;0.50;;;;;;;;;;4999297;28;20057;-48
2021/01/04 06:07:19;;;;;;;1.08;0.50;;;;;;;;;;4998114;28;20050;-47
2021/01/04 06:09:55;;;;;;;0.63;0.50;;;;;;;;;;4996623;28;20431;-47
2021/01/04 06:12:32;;;;;;;1.00;0.60;;;;;;;;;;5003569;28;20481;-47
2021/01/04 06:14:58;;;;;;;0.98;0.63;;;;;;;;;;4997358;28;20030;-47
2021/01/04 06:17:27;;;;;;;0.90;0.70;;;;;;;;;;4998048;28;20030;-47
2021/01/04 06:19:54;;;;;;;1.67;0.70;;;;;;;;;;4997079;28;20093;-48
2021/01/04 06:22:25;;;;;;;1.55;0.60;;;;;;;;;;4996089;28;20049;-47
2021/01/04 06:24:57;;;;;;;0.57;0.45;;;;;;;;;;4982727;28;20439;-47
2021/01/04 06:27:31;;;;;;;0.68;0.60;;;;;;;;;;5011051;28;20420;-47
2021/01/04 06:29:57;;;;;;;1.48;0.60;;;;;;;;;;4997588;28;20076;-47
2021/01/04 06:32:30;;;;;;;0.82;0.43;;;;;;;;;;4995988;28;20058;-48
2021/01/04 06:35:20;;;;;;;1.88;0.55;;;;;;;;;;4996827;28;20030;-48
2021/01/04 06:37:46;;;;;;;1.80;0.52;;;;;;;;;;4991750;28;20128;-48
2021/01/04 06:40:30;;;;;;;1.83;0.47;;;;;;;;;;4995671;28;20097;-47
2021/01/04 06:42:56;;;;;;;0.75;0.55;;;;;;;;;;4995309;28;20030;-46
2021/01/04 06:45:25;;;;;;;0.43;0.43;;;;;;;;;;5005090;28;20045;-47
2021/01/04 06:47:56;;;;;;;1.23;0.73;;;;;;;;;;4996305;28;20061;-47
2021/01/04 06:50:36;;;;;;;1.00;0.50;;;;;;;;;;5010927;28;20484;-47
2021/01/04 06:53:19;;;;;;;1.83;0.60;;;;;;;;;;5000751;28;20027;-47
2021/01/04 06:56:04;;;;;;;1.35;0.60;;;;;;;;;;5001846;28;20030;-47
2021/01/04 06:58:35;;;;;;;1.60;0.50;;;;;;;;;;5000165;28;20058;-47
2021/01/04 07:01:04;;;;;;;0.80;0.60;;;;;;;;;;5014910;28;20444;-47
2021/01/04 07:03:33;;;;;;;1.17;0.60;;;;;;;;;;5000468;28;20520;-47
2021/01/04 07:06:05;;;;;;;2.80;0.85;;;;;;;;;;5014612;28;20034;-47
2021/01/04 07:08:46;;;;;;;1.52;0.65;;;;;;;;;;5002890;28;20050;-47
2021/01/04 07:11:31;;;;;;;1.58;0.40;;;;;;;;;;4998758;28;20061;-48
2021/01/04 07:14:06;;;;;;;1.38;0.65;;;;;;;;;;4998643;28;20031;-47
2021/01/04 07:16:45;;;;;;;1.33;0.50;;;;;;;;;;5000943;28;20019;-47
2021/01/04 07:19:11;;;;;;;1.45;0.50;;;;;;;;;;5016855;28;20034;-47
2021/01/04 07:21:56;;;;;;;0.98;0.60;;;;;;;;;;5001562;28;20034;-46
2021/01/04 07:24:29;;;;;;;0.75;0.50;;;;;;;;;;5016841;28;20389;-46
2021/01/04 07:27:04;;;;;;;0.88;0.52;;;;;;;;;;5000630;28;20069;-46
2021/01/04 07:29:45;;;;;;;1.50;0.88;;;;;;;;;;5001996;28;20493;-47
2021/01/04 07:32:30;;;;;;;0.60;0.60;;;;;;;;;;5015716;28;20105;-47
2021/01/04 07:35:01;;;;;;;0.70;0.50;;;;;;;;;;5001206;28;20582;-47
2021/01/04 07:37:45;;;;;;;0.83;0.50;;;;;;;;;;4984613;28;20084;-47
2021/01/04 07:40:32;;;;;;;0.73;0.40;;;;;;;;;;4999149;28;20061;-46
2021/01/04 07:43:03;;;;;;;0.98;0.55;;;;;;;;;;4983695;28;20054;-46
2021/01/04 07:45:32;;;;;;;1.20;0.60;;;;;;;;;;4999387;28;20032;-46
2021/01/04 07:48:17;;;;;;;1.02;0.60;;;;;;;;;;4998866;28;20396;-47
2021/01/04 07:51:02;;;;;;;1.77;0.60;;;;;;;;;;5000730;28;20034;-46
2021/01/04 07:53:40;;;;;;;0.93;0.50;;;;;;;;;;4999028;28;20113;-47
2021/01/04 07:56:26;;;;;;;1.00;0.50;;;;;;;;;;4998723;28;20030;-47
2021/01/04 07:59:01;;;;;;;0.80;0.57;;;;;;;;;;4999907;28;20018;-46
2021/01/04 08:01:30;;;;;;;1.38;0.60;;;;;;;;;;4999085;28;20030;-47
2021/01/04 08:04:14;;;;;;;0.57;0.50;;;;;;;;;;4997632;28;20473;-47
2021/01/04 08:06:57;;;;;;;1.45;0.50;;;;;;;;;;4998859;28;20026;-47
2021/01/04 08:09:23;;;;;;;2.20;0.63;;;;;;;;;;5015900;28;20116;-50
2021/01/04 08:12:08;;;;;;;1.33;0.60;;;;;;;;;;4998137;28;20169;-46
2021/01/04 08:14:49;;;;;;;0.90;0.50;;;;;;;;;;4998848;28;20085;-47
2021/01/04 08:17:22;;;;;;;1.02;0.50;;;;;;;;;;4998241;28;20380;-47
2021/01/04 08:19:49;;;;;;;0.85;0.60;;;;;;;;;;5001336;28;20049;-46
2021/01/04 08:22:21;;;;;;;1.08;0.50;;;;;;;;;;5001197;28;20032;-46
2021/01/04 08:24:47;;;;;;;1.38;0.50;;;;;;;;;;5000178;28;20503;-46
2021/01/04 08:27:22;;;;;;;0.75;0.40;;;;;;;;;;5004915;28;20038;-46
2021/01/04 08:29:50;;;;;;;1.95;0.90;;;;;;;;;;5000941;28;20030;-45
2021/01/04 08:32:24;;;;;;;0.57;0.40;;;;;;;;;;4999677;28;20029;-45
2021/01/04 08:34:50;;;;;;;1.02;0.60;;;;;;;;;;5000987;28;20026;-46
2021/01/04 08:37:17;;;;;;;0.77;0.50;;;;;;;;;;5001940;28;20108;-45
2021/01/04 08:39:49;;;;;;;1.40;0.60;;;;;;;;;;5002429;28;20022;-47
2021/01/04 08:42:17;;;;;;;;;;;;;;;;;;4998939;28;20033;-46
2021/01/04 08:44:52;;;;;;;1.27;0.50;;;;;;;;;;4999738;28;19913;-46
2021/01/04 08:47:30;;;;;;;1.52;0.82;;;;;;;;;;4998449;28;20477;-47
2021/01/04 08:50:10;;;;;;;1.02;0.60;;;;;;;;;;4999610;28;20100;-46
2021/01/04 08:52:44;;;;;;;0.75;0.50;;;;;;;;;;4998224;28;20022;-47
2021/01/04 08:55:10;;;;;;;1.20;0.50;;;;;;;;;;4997580;28;20022;-45
2021/01/04 08:57:40;;;;;;;1.20;0.60;;;;;;;;;;4998334;28;20114;-46
2021/01/04 09:00:23;;;;;;;0.60;0.47;;;;;;;;;;4997466;28;20023;-46
2021/01/04 09:02:49;;;;;;;1.33;0.60;;;;;;;;;;4997683;28;20031;-46
2021/01/04 09:05:16;;;;;;;0.93;0.45;;;;;;;;;;4998199;28;20026;-47
2021/01/04 09:07:49;;;;;;;0.82;0.60;;;;;;;;;;4998215;28;20030;-46
2021/01/04 09:10:15;;;;;;;0.55;0.52;;;;;;;;;;4997298;28;20041;-46
2021/01/04 09:12:46;;;;;;;0.65;0.50;;;;;;;;;;4998665;28;20029;-46
2021/01/04 09:15:12;;;;;;;2.83;0.50;;;;;;;;;;5012072;28;20034;-46
2021/01/04 09:17:40;;;;;;;1.75;0.50;;;;;;;;;;4997912;28;20026;-46
2021/01/04 09:20:10;;;;;;;3.83;0.65;;;;;;;;;;5013774;28;20431;-46
2021/01/04 09:22:36;;;;;;;1.27;0.60;;;;;;;;;;4997794;28;20026;-45
2021/01/04 09:25:02;;;;;;;0.80;0.50;;;;;;;;;;4997097;28;20455;-46
2021/01/04 09:27:32;;;;;;;3.22;0.60;;;;;;;;;;4997461;28;20037;-46
2021/01/04 09:30:00;;;;;;;2.50;0.50;;;;;;;;;;5014420;28;20034;-46
2021/01/04 09:32:35;;;;;;;1.17;0.60;;;;;;;;;;4999726;28;20034;-46
2021/01/04 09:35:01;;;;;;;1.95;0.50;;;;;;;;;;5000015;28;20389;-47
2021/01/04 09:37:27;;;;;;;0.60;0.40;;;;;;;;;;4997324;28;20042;-46
2021/01/04 09:40:01;;;;;;;1.30;0.47;;;;;;;;;;4998355;28;20050;-46
2021/01/04 09:42:27;;;;;;;1.67;0.70;;;;;;;;;;5000483;28;20019;-46
2021/01/04 09:44:54;;;;;;;0.90;0.52;;;;;;;;;;4998745;28;20046;-46
2021/01/04 09:47:25;;;;;;;2.38;0.60;;;;;;;;;;4996618;28;20030;-46
2021/01/04 09:49:51;;;;;;;1.08;0.65;;;;;;;;;;4997699;28;20069;-46
2021/01/04 09:52:18;;;;;;;0.43;0.43;;;;;;;;;;5003590;28;20038;-46
2021/01/04 09:54:44;;;;;;;2.35;0.60;;;;;;;;;;4998928;28;20560;-46
2021/01/04 09:57:10;;;;;;;0.50;0.43;;;;;;;;;;4997344;28;20033;-46
2021/01/04 09:59:40;;;;;;;0.98;0.60;;;;;;;;;;4997288;28;20421;-46
2021/01/04 10:02:07;;;;;;;1.05;0.43;;;;;;;;;;4997851;28;20030;-47
2021/01/04 10:04:40;;;;;;;0.90;0.50;;;;;;;;;;5005204;28;20034;-46
2021/01/04 10:07:08;;;;;;;1.23;0.50;;;;;;;;;;4996054;28;20026;-46
2021/01/04 10:09:40;;;;;;;1.25;0.50;;;;;;;;;;4995926;28;20022;-46
2021/01/04 10:12:07;;;;;;;1.02;0.50;;;;;;;;;;5013201;28;20089;-46
2021/01/04 10:14:33;;;;;;;3.08;0.80;;;;;;;;;;4997240;28;20030;-46
2021/01/04 10:16:59;;;;;;;0.50;0.50;;;;;;;;;;5012190;28;20081;-46
2021/01/04 10:19:26;;;;;;;2.10;0.55;;;;;;;;;;4997669;28;20027;-46
2021/01/04 10:22:04;;;;;;;3.67;0.70;;;;;;;;;;4997026;28;20034;-46
2021/01/04 10:24:41;;;;;;;1.88;0.75;;;;;;;;;;5003588;28;20104;-47
2021/01/04 10:27:07;;;;;;;1.98;0.70;;;;;;;;;;5007144;28;20026;-47
2021/01/04 10:29:33;;;;;;;2.17;0.73;;;;;;;;;;5001240;28;20489;-46
2021/01/04 10:32:06;;;;;;;1.70;0.80;;;;;;;;;;5019107;28;20490;-46
2021/01/04 10:34:43;;;;;;;1.23;0.80;;;;;;;;;;5002678;28;20474;-47
2021/01/04 10:37:17;;;;;;;1.50;0.98;;;;;;;;;;5001680;28;20053;-47
2021/01/04 10:39:43;;;;;;;1.75;1.20;;;;;;;;;;5002150;28;20014;-46
2021/01/04 10:42:12;;;;;;;1.88;1.10;;;;;;;;;;5018147;28;20550;-46
2021/01/04 10:44:38;;;;;;;2.15;1.40;;;;;;;;;;4987985;28;20026;-47
2021/01/04 10:47:07;;;;;;;2.05;1.30;;;;;;;;;;5007296;28;20061;-46
2021/01/04 10:49:34;;;;;;;3.38;1.40;;;;;;;;;;5004766;28;20034;-47
2021/01/04 10:52:00;;;;;;;2.00;1.30;;;;;;;;;;5008082;28;20077;-47
2021/01/04 10:54:39;;;;;;;2.70;1.55;;;;;;;;;;5001562;28;20481;-47
2021/01/04 10:57:13;;;;;;;4.18;1.75;;;;;;;;;;5004367;28;20471;-46
2021/01/04 10:59:40;;;;;;;2.28;1.58;;;;;;;;;;5002796;28;20023;-46
2021/01/04 11:02:06;;;;;;;3.95;1.95;;;;;;;;;;5008859;28;20034;-46
2021/01/04 11:04:32;;;;;;;2.70;1.83;;;;;;;;;;5003783;28;20026;-46
2021/01/04 11:07:15;;;;;;;3.20;1.90;;;;;;;;;;5003781;28;20054;-46
2021/01/04 11:09:42;;;;;;;4.47;2.30;;;;;;;;;;5000346;28;20026;-46
2021/01/04 11:12:09;;;;;;;4.00;2.35;;;;;;;;;;5004911;28;20033;-46
2021/01/04 11:14:36;;;;;;;5.30;2.38;;;;;;;;;;5005486;28;20080;-46
2021/01/04 11:17:10;;;;;;;3.88;2.53;;;;;;;;;;5003966;28;20028;-46
2021/01/04 11:19:36;;;;;;;4.43;2.30;;;;;;;;;;5000637;28;20480;-46
2021/01/04 11:22:09;;;;;;;3.63;2.38;;;;;;;;;;5004014;28;20030;-46
2021/01/04 11:24:35;;;;;;;4.13;2.47;;;;;;;;;;5001654;28;20558;-46
2021/01/04 11:27:01;;;;;;;4.00;2.60;;;;;;;;;;5006779;28;20030;-46
2021/01/04 11:29:27;;;;;;;3.63;2.40;;;;;;;;;;5002126;28;20026;-47
2021/01/04 11:31:53;;;;;;;4.22;2.83;;;;;;;;;;5002264;28;20030;-46
2021/01/04 11:34:19;;;;;;;5.72;3.28;;;;;;;;;;5004639;28;20026;-46
2021/01/04 11:36:45;;;;;;;6.63;3.47;;;;;;;;;;5010049;28;20079;-46
2021/01/04 11:39:11;;;;;;;5.30;2.65;;;;;;;;;;5001008;28;20400;-47
2021/01/04 11:41:37;;;;;;;6.53;3.22;;;;;;;;;;5002669;28;20038;-47
2021/01/04 11:44:03;;;;;;;5.30;3.30;;;;;;;;;;5003370;28;20437;-47
2021/01/04 11:46:28;;;;;;;5.53;3.10;;;;;;;;;;5003537;28;20026;-47
2021/01/04 11:48:56;;;;;;;4.30;3.00;;;;;;;;;;5001169;28;20053;-47
2021/01/04 11:51:22;;;;;;;6.15;3.70;;;;;;;;;;4998880;28;20037;-47
2021/01/04 11:53:49;;;;;;;6.63;4.00;;;;;;;;;;5000265;28;20857;-47
2021/01/04 11:56:15;;;;;;;5.80;4.20;;;;;;;;;;4999385;28;20448;-47
2021/01/04 11:58:41;;;;;;;9.15;4.07;;;;;;;;;;5000380;28;20428;-47
2021/01/04 12:01:07;;;;;;;5.88;3.90;;;;;;;;;;5001312;28;20022;-46
2021/01/04 12:03:33;;;;;;;7.00;4.15;;;;;;;;;;5002638;28;20069;-47
2021/01/04 12:05:59;;;;;;;7.53;4.25;;;;;;;;;;4998156;28;20027;-47
2021/01/04 12:08:25;;;;;;;7.10;4.55;;;;;;;;;;5000958;28;20555;-47
2021/01/04 12:10:51;;;;;;;6.82;4.47;;;;;;;;;;5000701;28;20034;-46
2021/01/04 12:13:17;;;;;;;8.50;4.63;;;;;;;;;;4998923;28;20065;-47
2021/01/04 12:15:43;;;;;;;7.63;4.65;;;;;;;;;;4998588;28;20022;-46
2021/01/04 12:18:09;;;;;;;7.70;4.72;;;;;;;;;;5003763;28;20099;-47
2021/01/04 12:20:35;;;;;;;9.35;5.15;;;;;;;;;;5002851;28;20026;-46
2021/01/04 12:23:01;;;;;;;9.30;5.50;;;;;;;;;;5001824;28;20077;-46
2021/01/04 12:25:27;;;;;;;8.95;5.30;;;;;;;;;;5002223;28;20025;-46
2021/01/04 12:27:53;;;;;;;9.13;5.78;;;;;;;;;;5002611;28;20417;-46
2021/01/04 12:30:20;;;;;;;10.90;5.35;;;;;;;;;;5001550;28;20027;-46
2021/01/04 12:32:46;;;;;;;12.45;6.10;;;;;;;;;;5008435;28;20109;-49
2021/01/04 12:35:12;;;;;;;11.48;5.95;;;;;;;;;;5001449;28;20107;-46
2021/01/04 12:37:38;;;;;;;13.13;6.57;;;;;;;;;;4999762;28;20030;-46
2021/01/04 12:40:08;;;;;;;12.00;6.85;;;;;;;;;;5000908;28;20502;-47
2021/01/04 12:42:34;;;;;;;13.40;6.82;;;;;;;;;;4999242;28;20038;-46
2021/01/04 12:45:00;;;;;;;13.32;6.70;;;;;;;;;;4998391;28;20431;-46
2021/01/04 12:47:26;;;;;;;16.08;6.90;;;;;;;;;;5001798;28;20036;-46
2021/01/04 12:49:52;;;;;;;16.88;7.25;;;;;;;;;;5001676;28;20076;-47
2021/01/04 12:52:18;;;;;;;16.30;7.60;;;;;;;;;;5000047;28;20030;-46
2021/01/04 12:54:44;;;;;;;15.18;7.15;;;;;;;;;;4999132;28;20022;-46
2021/01/04 12:57:11;;;;;;;14.88;7.28;;;;;;;;;;5001019;28;20084;-46
2021/01/04 12:59:41;;;;;;;17.88;8.07;;;;;;;;;;5001848;28;20125;-46
2021/01/04 13:02:07;;;;;;;15.20;6.88;;;;;;;;;;5001116;28;20029;-47
2021/01/04 13:04:33;;;;;;;16.92;8.02;;;;;;;;;;5001832;28;20113;-47
2021/01/04 13:06:59;;;;;;;15.15;7.95;;;;;;;;;;4999789;28;20054;-46
2021/01/04 13:09:26;;;;;;;16.15;7.53;;;;;;;;;;5002333;28;20084;-46
2021/01/04 13:11:52;;;;;;;15.38;7.93;;;;;;;;;;5001252;28;20029;-46
2021/01/04 13:14:18;;;;;;;16.42;7.75;;;;;;;;;;5001587;28;20022;-45
2021/01/04 13:16:45;;;;;;;15.85;7.60;;;;;;;;;;4998417;28;20022;-46
2021/01/04 13:19:11;;;;;;;17.52;8.57;;;;;;;;;;5000520;28;20108;-46
2021/01/04 13:21:37;;;;;;;15.88;8.18;;;;;;;;;;5001369;28;20065;-46
2021/01/04 13:24:04;;;;;;;15.98;7.90;;;;;;;;;;5000109;28;20034;-46
2021/01/04 13:26:30;;;;;;;14.88;7.65;;;;;;;;;;4999895;28;20386;-46
2021/01/04 13:28:56;;;;;;;12.55;7.60;;;;;;;;;;5001005;28;20057;-46
2021/01/04 13:31:25;;;;;;;14.73;8.43;;;;;;;;;;4999855;28;20065;-45
2021/01/04 13:33:51;;;;;;;16.17;8.50;;;;;;;;;;4999035;28;20142;-46
2021/01/04 13:36:17;;;;;;;16.45;8.73;;;;;;;;;;5001176;28;20034;-46
2021/01/04 13:38:44;;;;;;;18.80;9.18;;;;;;;;;;4999344;28;20026;-46
2021/01/04 13:41:11;;;;;;;17.88;10.15;;;;;;;;;;4998720;28;20018;-46
2021/01/04 13:43:37;;;;;;;16.30;9.43;;;;;;;;;;5000011;28;20700;-46
2021/01/04 13:46:03;;;;;;;17.02;9.20;;;;;;;;;;5001419;28;20026;-46
2021/01/04 13:48:29;;;;;;;15.35;9.52;;;;;;;;;;5001698;28;20506;-46
2021/01/04 13:50:55;;;;;;;15.65;9.70;;;;;;;;;;4998863;28;20037;-47
2021/01/04 13:53:23;;;;;;;20.83;10.02;;;;;;;;;;5001265;28;20033;-47
2021/01/04 13:55:49;;;;;;;16.88;10.13;;;;;;;;;;4999258;28;20026;-47
2021/01/04 13:58:15;;;;;;;16.13;9.45;;;;;;;;;;4999422;28;20056;-46
2021/01/04 14:00:41;;;;;;;18.60;9.90;;;;;;;;;;5000056;28;20034;-46
2021/01/04 14:03:07;;;;;;;18.42;10.43;;;;;;;;;;4997595;28;20025;-47
2021/01/04 14:05:32;;;;;;;17.67;10.30;;;;;;;;;;4998722;28;20113;-46
2021/01/04 14:07:58;;;;;;;18.17;10.68;;;;;;;;;;5000661;28;20061;-46
2021/01/04 14:10:24;;;;;;;20.70;10.63;;;;;;;;;;4999272;28;20033;-55
2021/01/04 14:12:50;;;;;;;18.40;11.35;;;;;;;;;;4997765;28;20100;-46
2021/01/04 14:15:17;;;;;;;18.17;11.18;;;;;;;;;;5001044;28;20019;-46
2021/01/04 14:17:43;;;;;;;21.15;12.07;;;;;;;;;;4999208;28;20025;-46
2021/01/04 14:20:09;;;;;;;18.13;10.98;;;;;;;;;;4999952;28;20029;-47
2021/01/04 14:22:35;;;;;;;18.08;11.75;;;;;;;;;;5000292;28;20120;-47
2021/01/04 14:25:01;;;;;;;19.25;11.90;;;;;;;;;;5000742;28;20462;-47
2021/01/04 14:27:27;;;;;;;19.25;11.60;;;;;;;;;;5000312;28;20029;-49
2021/01/04 14:29:53;;;;;;;19.52;12.30;;;;;;;;;;5000708;28;20029;-52
2021/01/04 14:32:21;;;;;;;19.45;11.48;;;;;;;;;;5000312;28;20109;-46
2021/01/04 14:34:47;;;;;;;17.10;11.50;;;;;;;;;;5000253;28;20026;-46
2021/01/04 14:37:12;;;;;;;18.67;12.00;;;;;;;;;;4999750;28;20030;-46
2021/01/04 14:39:38;;;;;;;18.73;11.85;;;;;;;;;;5000329;28;20026;-45
2021/01/04 14:42:06;;;;;;;21.95;12.23;;;;;;;;;;5000421;28;20038;-46
2021/01/04 14:44:32;;;;;;;18.95;11.68;;;;;;;;;;4998921;28;20034;-46
2021/01/04 14:46:59;;;;;;;18.75;11.65;;;;;;;;;;5000015;28;20033;-48
2021/01/04 14:49:25;;;;;;;17.80;11.57;;;;;;;;;;5000722;28;20026;-49
2021/01/04 14:51:51;;;;;;;20.13;12.75;;;;;;;;;;4999836;28;20033;-49
2021/01/04 14:54:17;;;;;;;17.45;11.30;;;;;;;;;;5000396;28;20023;-50
2021/01/04 14:56:43;;;;;;;17.17;11.45;;;;;;;;;;4999912;28;20033;-48